createdAt,value
2022-10-07T00:00:55.106Z,32.60
2022-10-07T00:03:31.380Z,41.00
2022-10-07T00:06:07.581Z,38.60
2022-10-07T00:08:36.196Z,35.70
2022-10-07T00:11:06.456Z,32.20
2022-10-07T00:13:33.588Z,30.00
2022-10-07T00:16:09.977Z,36.80
2022-10-07T00:18:37.376Z,33.40
2022-10-07T00:21:07.714Z,39.00
2022-10-07T00:23:37.769Z,33.00
2022-10-07T00:26:07.659Z,35.00
2022-10-07T00:28:36.629Z,31.90
2022-10-07T00:31:08.209Z,27.00
2022-10-07T00:33:37.555Z,39.50
2022-10-07T00:36:35.436Z,39.50
2022-10-07T00:39:06.099Z,36.80
2022-10-07T00:41:39.605Z,49.40
2022-10-07T00:44:35.325Z,40.90
2022-10-07T00:47:25.737Z,42.90
2022-10-07T00:50:18.689Z,43.60
2022-10-07T00:55:21.154Z,45.60
2022-10-07T00:57:49.222Z,50.00
2022-10-07T01:00:16.034Z,48.30
2022-10-07T01:02:42.960Z,47.40
2022-10-07T01:05:13.626Z,51.10
2022-10-07T01:07:40.527Z,48.80
2022-10-07T01:10:08.826Z,42.70
2022-10-07T01:12:41.491Z,35.90
2022-10-07T01:18:17.339Z,40.10
2022-10-07T01:21:00.286Z,45.70
2022-10-07T01:23:45.005Z,43.60
2022-10-07T01:26:14.152Z,40.60
2022-10-07T01:28:44.326Z,41.30
2022-10-07T01:31:14.228Z,32.70
2022-10-07T01:33:41.306Z,36.60
2022-10-07T01:36:12.241Z,30.10
2022-10-07T01:38:42.800Z,31.40
2022-10-07T01:41:14.572Z,31.70
2022-10-07T01:43:41.992Z,33.60
2022-10-07T01:46:13.499Z,32.10
2022-10-07T01:48:40.160Z,30.40
2022-10-07T01:51:07.773Z,31.00
2022-10-07T01:54:08.349Z,29.30
2022-10-07T01:57:15.962Z,30.80
2022-10-07T02:00:11.579Z,29.50
2022-10-07T02:03:08.934Z,26.90
2022-10-07T02:06:17.227Z,28.20
2022-10-07T02:08:51.159Z,27.80
2022-10-07T02:11:29.602Z,26.60
2022-10-07T02:14:23.808Z,28.70
2022-10-07T02:17:03.415Z,27.80
2022-10-07T02:19:40.389Z,31.10
2022-10-07T02:22:07.536Z,28.80
2022-10-07T02:24:35.473Z,29.60
2022-10-07T02:27:07.676Z,33.00
2022-10-07T02:29:36.870Z,35.20
2022-10-07T02:32:07.409Z,34.20
2022-10-07T02:34:35.597Z,31.30
2022-10-07T02:37:06.982Z,37.20
2022-10-07T02:39:33.583Z,33.80
2022-10-07T02:42:04.558Z,53.00
2022-10-07T02:45:03.606Z,60.60
2022-10-07T02:47:55.863Z,92.00
2022-10-07T02:50:25.970Z,152.90
2022-10-07T02:52:55.042Z,93.40
2022-10-07T02:55:25.352Z,101.30
2022-10-07T02:57:57.297Z,98.90
2022-10-07T03:00:23.978Z,82.60
2022-10-07T03:02:57.169Z,81.20
2022-10-07T03:05:25.384Z,56.90
2022-10-07T03:07:58.637Z,63.50
2022-10-07T03:10:28.583Z,53.70
2022-10-07T03:12:55.093Z,52.70
2022-10-07T03:15:22.998Z,47.20
2022-10-07T03:17:49.839Z,56.40
2022-10-07T03:20:16.367Z,47.40
2022-10-07T03:22:44.099Z,56.50
2022-10-07T03:25:11.975Z,45.40
2022-10-07T03:27:39.049Z,46.00
2022-10-07T03:30:06.438Z,46.90
2022-10-07T03:32:33.206Z,49.20
2022-10-07T03:35:00.103Z,44.00
2022-10-07T03:37:29.136Z,43.70
2022-10-07T03:39:55.569Z,42.90
2022-10-07T03:42:23.478Z,44.60
2022-10-07T03:44:50.197Z,50.00
2022-10-07T03:47:17.262Z,45.80
2022-10-07T03:49:44.405Z,46.90
2022-10-07T03:52:11.150Z,48.60
2022-10-07T03:54:37.754Z,53.70
2022-10-07T03:57:24.085Z,52.30
2022-10-07T03:59:52.987Z,44.30
2022-10-07T04:02:22.863Z,47.20
2022-10-07T04:04:52.232Z,51.30
2022-10-07T04:07:20.853Z,135.70
2022-10-07T04:09:47.764Z,141.60
2022-10-07T04:12:14.290Z,211.00
2022-10-07T04:14:40.740Z,160.80
2022-10-07T04:17:07.369Z,112.70
2022-10-07T04:19:35.045Z,93.70
2022-10-07T04:22:07.600Z,99.00
2022-10-07T04:24:35.431Z,90.00
2022-10-07T04:27:04.355Z,82.50
2022-10-07T04:29:35.310Z,86.30
2022-10-07T04:32:05.211Z,71.50
2022-10-07T04:34:32.000Z,75.60
2022-10-07T04:37:00.419Z,79.00
2022-10-07T04:39:42.777Z,83.80
2022-10-07T04:42:33.629Z,102.20
2022-10-07T04:45:00.231Z,109.70
2022-10-07T04:47:29.025Z,118.60
2022-10-07T04:49:55.403Z,127.20
2022-10-07T04:52:26.173Z,133.40
2022-10-07T04:54:53.381Z,130.80
2022-10-07T04:57:20.129Z,122.90
2022-10-07T04:59:46.721Z,117.20
2022-10-07T05:02:13.474Z,109.00
2022-10-07T05:04:40.217Z,108.30
2022-10-07T05:07:07.966Z,110.00
2022-10-07T05:09:34.849Z,98.20
2022-10-07T05:12:01.684Z,97.60
2022-10-07T05:14:29.992Z,93.80
2022-10-07T05:16:56.507Z,91.40
2022-10-07T05:19:22.990Z,137.10
2022-10-07T05:21:49.327Z,100.30
2022-10-07T05:24:15.929Z,110.90
2022-10-07T05:26:42.625Z,96.60
2022-10-07T05:29:09.399Z,92.90
2022-10-07T05:31:35.933Z,76.10
2022-10-07T05:34:02.490Z,80.60
2022-10-07T05:36:34.095Z,87.10
2022-10-07T05:39:00.669Z,93.60
2022-10-07T05:41:28.353Z,118.10
2022-10-07T05:43:54.825Z,121.00
2022-10-07T05:46:23.981Z,141.00
2022-10-07T05:48:52.107Z,165.50
2022-10-07T05:51:19.911Z,155.80
2022-10-07T05:53:47.111Z,167.60
2022-10-07T05:56:21.644Z,149.20
2022-10-07T05:58:49.360Z,151.40
2022-10-07T06:01:18.664Z,164.50
2022-10-07T06:03:50.883Z,159.20
2022-10-07T06:06:18.420Z,153.20
2022-10-07T06:08:46.164Z,135.20
2022-10-07T06:11:34.628Z,149.40
2022-10-07T06:14:01.653Z,122.30
2022-10-07T06:16:28.586Z,113.30
2022-10-07T06:18:55.502Z,108.40
2022-10-07T06:21:28.153Z,105.90
2022-10-07T06:23:57.354Z,87.70
2022-10-07T06:26:24.004Z,76.20
2022-10-07T06:28:50.629Z,69.90
2022-10-07T06:31:21.797Z,74.10
2022-10-07T06:33:49.955Z,63.60
2022-10-07T06:36:17.168Z,62.80
2022-10-07T06:38:49.708Z,63.30
2022-10-07T06:41:16.903Z,53.30
2022-10-07T06:43:43.715Z,49.60
2022-10-07T06:46:17.455Z,40.60
2022-10-07T06:48:45.388Z,43.70
2022-10-07T06:51:17.906Z,47.60
2022-10-07T06:53:44.858Z,49.90
2022-10-07T06:56:13.705Z,46.10
2022-10-07T06:58:40.195Z,50.10
2022-10-07T07:01:06.699Z,44.40
2022-10-07T07:03:33.189Z,37.90
2022-10-07T07:05:59.764Z,39.20
2022-10-07T07:08:28.626Z,38.30
2022-10-07T07:10:55.524Z,30.70
2022-10-07T07:13:22.091Z,35.20
2022-10-07T07:15:57.209Z,31.90
2022-10-07T07:18:24.233Z,22.90
2022-10-07T07:20:51.211Z,20.90
2022-10-07T07:23:18.665Z,20.20
2022-10-07T07:25:45.535Z,19.90
2022-10-07T07:28:14.347Z,17.70
2022-10-07T07:30:41.424Z,22.70
2022-10-07T07:33:08.352Z,22.30
2022-10-07T07:35:40.649Z,21.30
2022-10-07T07:38:07.990Z,25.40
2022-10-07T07:40:38.861Z,27.70
2022-10-07T07:43:06.629Z,19.90
2022-10-07T07:45:36.161Z,14.20
2022-10-07T07:48:03.707Z,19.40
2022-10-07T07:50:30.619Z,22.50
2022-10-07T07:52:59.523Z,17.90
2022-10-07T07:55:25.893Z,20.90
2022-10-07T07:57:52.396Z,19.80
2022-10-07T08:00:19.140Z,22.40
2022-10-07T08:02:45.961Z,15.20
2022-10-07T08:05:12.428Z,18.10
2022-10-07T08:07:39.444Z,22.00
2022-10-07T08:10:06.637Z,19.80
2022-10-07T08:12:33.352Z,15.40
2022-10-07T08:14:59.816Z,16.60
2022-10-07T08:17:26.237Z,14.70
2022-10-07T08:19:54.644Z,17.50
2022-10-07T08:22:23.815Z,16.10
2022-10-07T08:24:50.582Z,15.90
2022-10-07T08:27:16.952Z,13.90
2022-10-07T08:29:43.522Z,13.70
2022-10-07T08:32:10.209Z,16.20
2022-10-07T08:34:36.674Z,18.40
2022-10-07T08:37:03.380Z,21.70
2022-10-07T08:39:31.508Z,13.60
2022-10-07T08:42:12.673Z,12.70
2022-10-07T08:44:41.604Z,15.10
2022-10-07T08:47:34.101Z,10.00
2022-10-07T08:50:23.316Z,15.20
2022-10-07T08:53:07.835Z,15.10
2022-10-07T08:55:45.908Z,13.50
2022-10-07T08:58:47.190Z,11.50
2022-10-07T09:01:25.553Z,10.00
2022-10-07T09:04:06.367Z,13.60
2022-10-07T09:06:38.910Z,9.80
2022-10-07T09:09:23.440Z,11.60
2022-10-07T09:11:50.648Z,8.30
2022-10-07T09:14:30.527Z,10.20
2022-10-07T09:17:07.780Z,8.70
2022-10-07T09:19:41.400Z,8.80
2022-10-07T09:22:34.325Z,10.00
2022-10-07T09:25:20.848Z,8.00
2022-10-07T09:27:48.646Z,8.30
2022-10-07T09:30:16.182Z,8.10
2022-10-07T09:32:49.998Z,11.50
2022-10-07T09:35:21.345Z,7.40
2022-10-07T09:38:01.102Z,8.60
2022-10-07T09:40:32.134Z,8.10
2022-10-07T09:42:59.653Z,10.00
2022-10-07T09:45:33.006Z,8.20
2022-10-07T09:48:06.562Z,7.40
2022-10-07T09:50:41.991Z,10.00
2022-10-07T09:53:31.399Z,11.40
2022-10-07T09:55:58.351Z,7.00
2022-10-07T09:58:29.901Z,10.60
2022-10-07T10:01:01.369Z,7.20
2022-10-07T10:03:33.908Z,6.10
2022-10-07T10:06:02.145Z,6.70
2022-10-07T10:08:33.367Z,6.60
2022-10-07T10:11:04.088Z,5.50
2022-10-07T10:13:38.722Z,5.30
2022-10-07T10:16:28.819Z,7.20
2022-10-07T10:19:01.774Z,5.50
2022-10-07T10:21:32.039Z,7.50
2022-10-07T10:24:09.498Z,7.50
2022-10-07T10:27:06.655Z,6.90
2022-10-07T10:29:40.999Z,5.00
2022-10-07T10:32:48.166Z,6.40
2022-10-07T10:35:30.776Z,10.00
2022-10-07T10:38:00.184Z,4.30
2022-10-07T10:40:47.420Z,7.80
2022-10-07T10:43:34.726Z,4.10
2022-10-07T10:46:39.657Z,12.70
2022-10-07T10:49:44.742Z,7.20
2022-10-07T10:52:26.053Z,5.30
2022-10-07T10:55:22.804Z,9.40
2022-10-07T10:58:02.718Z,5.80
2022-10-07T11:00:59.933Z,6.20
2022-10-07T11:03:43.892Z,4.60
2022-10-07T11:06:14.868Z,4.80
2022-10-07T11:08:44.575Z,4.60
2022-10-07T11:11:20.019Z,6.90
2022-10-07T11:13:59.168Z,6.50
2022-10-07T11:16:48.968Z,6.40
2022-10-07T11:19:35.767Z,5.70
2022-10-07T11:22:02.911Z,7.50
2022-10-07T11:24:34.954Z,6.00
2022-10-07T11:30:16.944Z,8.30
2022-10-07T11:32:58.854Z,5.70
2022-10-07T11:35:33.343Z,6.20
2022-10-07T11:38:14.883Z,5.20
2022-10-07T11:40:52.854Z,5.30
2022-10-07T11:43:32.649Z,6.70
2022-10-07T11:46:22.725Z,7.40
2022-10-07T11:49:05.015Z,4.60
2022-10-07T11:51:40.794Z,6.50
2022-10-07T11:54:14.093Z,7.50
2022-10-07T11:56:49.909Z,8.50
2022-10-07T11:59:45.646Z,4.70
2022-10-07T12:02:27.611Z,5.30
2022-10-07T12:04:58.773Z,7.50
2022-10-07T12:07:31.437Z,4.40
2022-10-07T12:10:01.220Z,6.20
2022-10-07T12:12:46.793Z,8.20
2022-10-07T12:15:35.392Z,4.90
2022-10-07T12:18:05.025Z,7.80
2022-10-07T12:20:34.519Z,3.90
2022-10-07T12:23:19.803Z,6.90
2022-10-07T12:26:00.759Z,4.90
2022-10-07T12:28:45.323Z,4.80
2022-10-07T12:31:15.142Z,4.90
2022-10-07T12:33:44.463Z,3.70
2022-10-07T12:36:29.229Z,7.00
2022-10-07T12:38:55.970Z,5.20
2022-10-07T12:41:39.760Z,5.30
2022-10-07T12:44:31.222Z,4.60
2022-10-07T12:47:10.639Z,7.40
2022-10-07T12:49:50.792Z,8.20
2022-10-07T12:52:42.609Z,6.00
2022-10-07T12:55:16.074Z,4.20
2022-10-07T12:57:51.838Z,4.70
2022-10-07T13:00:27.181Z,3.70
2022-10-07T13:03:40.362Z,5.40
2022-10-07T13:06:35.034Z,4.90
2022-10-07T13:09:14.131Z,7.70
2022-10-07T13:12:02.418Z,5.00
2022-10-07T13:14:47.673Z,3.40
2022-10-07T13:17:45.406Z,3.00
2022-10-07T13:20:23.894Z,2.80
2022-10-07T13:22:50.938Z,11.30
2022-10-07T13:25:19.732Z,4.20
2022-10-07T13:27:53.516Z,5.90
2022-10-07T13:30:42.241Z,5.90
2022-10-07T13:33:35.127Z,6.20
2022-10-07T13:36:16.407Z,5.00
2022-10-07T13:38:45.753Z,5.90
2022-10-07T13:41:29.413Z,5.10
2022-10-07T13:44:03.243Z,10.80
2022-10-07T13:46:32.777Z,5.40
2022-10-07T13:49:00.490Z,6.90
2022-10-07T13:51:36.193Z,5.90
2022-10-07T13:54:07.329Z,5.70
2022-10-07T13:56:40.177Z,7.70
2022-10-07T13:59:17.443Z,6.20
2022-10-07T14:01:50.134Z,7.70
2022-10-07T14:04:22.988Z,7.40
2022-10-07T14:07:15.727Z,8.80
2022-10-07T14:12:33.680Z,5.00
2022-10-07T14:15:11.133Z,6.40
2022-10-07T14:17:51.413Z,6.10
2022-10-07T14:20:34.001Z,5.20
2022-10-07T14:23:27.678Z,5.60
2022-10-07T14:26:00.571Z,11.20
2022-10-07T14:28:34.682Z,5.40
2022-10-07T14:31:22.668Z,5.40
2022-10-07T14:34:12.443Z,4.60
2022-10-07T14:37:16.863Z,8.10
2022-10-07T14:39:48.917Z,6.00
2022-10-07T14:42:21.931Z,6.90
2022-10-07T14:44:49.043Z,15.90
2022-10-07T14:47:20.251Z,6.70
2022-10-07T14:50:01.072Z,13.30
2022-10-07T14:52:35.316Z,9.00
2022-10-07T14:55:25.928Z,10.90
2022-10-07T14:57:53.645Z,5.90
2022-10-07T15:00:29.203Z,6.80
2022-10-07T15:02:56.261Z,7.30
2022-10-07T15:05:23.336Z,7.20
2022-10-07T15:07:50.402Z,9.20
2022-10-07T15:10:24.690Z,5.10
2022-10-07T15:12:51.908Z,5.90
2022-10-07T15:15:19.330Z,5.20
2022-10-07T15:17:46.050Z,7.10
2022-10-07T15:20:15.403Z,8.90
2022-10-07T15:22:43.320Z,9.00
2022-10-07T15:25:11.607Z,7.50
2022-10-07T15:27:38.339Z,7.40
2022-10-07T15:30:06.681Z,7.70
2022-10-07T15:32:34.036Z,6.20
2022-10-07T15:35:01.400Z,7.40
2022-10-07T15:37:28.784Z,9.40
2022-10-07T15:39:55.565Z,5.00
2022-10-07T15:42:25.843Z,6.50
2022-10-07T15:44:53.102Z,5.80
2022-10-07T15:47:20.131Z,7.90
2022-10-07T15:49:46.586Z,9.90
2022-10-07T15:52:13.266Z,5.70
2022-10-07T15:54:40.051Z,7.60
2022-10-07T15:57:07.800Z,6.00
2022-10-07T15:59:35.120Z,14.00
2022-10-07T16:02:03.819Z,12.20
2022-10-07T16:04:30.301Z,17.00
2022-10-07T16:06:57.505Z,11.80
2022-10-07T16:09:24.580Z,11.50
2022-10-07T16:11:53.557Z,10.00
2022-10-07T16:14:20.863Z,14.20
2022-10-07T16:16:52.417Z,13.80
2022-10-07T16:19:19.730Z,12.10
2022-10-07T16:21:46.738Z,13.30
2022-10-07T16:24:15.812Z,18.00
2022-10-07T16:26:43.534Z,28.10
2022-10-07T16:29:36.281Z,24.20
2022-10-07T16:32:03.983Z,28.80
2022-10-07T16:34:30.783Z,39.30
2022-10-07T16:36:58.022Z,40.80
2022-10-07T16:39:25.132Z,41.40
2022-10-07T16:41:52.502Z,29.40
2022-10-07T16:44:20.454Z,28.80
2022-10-07T16:46:48.665Z,23.70
2022-10-07T16:49:17.425Z,30.00
2022-10-07T16:51:45.377Z,41.80
2022-10-07T16:54:16.119Z,42.50
2022-10-07T16:56:49.306Z,50.10
2022-10-07T16:59:24.874Z,34.70
2022-10-07T17:01:56.185Z,49.30
2022-10-07T17:04:27.097Z,61.90
2022-10-07T17:06:54.028Z,33.20
2022-10-07T17:09:23.890Z,26.90
2022-10-07T17:11:50.785Z,33.40
2022-10-07T17:14:20.701Z,22.40
2022-10-07T17:16:51.056Z,29.80
2022-10-07T17:19:23.843Z,33.30
2022-10-07T17:21:52.668Z,46.90
2022-10-07T17:24:21.373Z,55.80
2022-10-07T17:26:49.076Z,67.60
2022-10-07T17:29:21.043Z,78.00
2022-10-07T17:31:50.234Z,78.30
2022-10-07T17:34:20.333Z,97.10
2022-10-07T17:36:50.216Z,113.50
2022-10-07T17:39:18.801Z,137.90
2022-10-07T17:41:52.967Z,169.00
2022-10-07T17:44:26.429Z,211.20
2022-10-07T17:46:56.198Z,212.70
2022-10-07T17:49:23.414Z,198.60
2022-10-07T17:51:50.263Z,182.60
2022-10-07T17:54:17.430Z,191.20
2022-10-07T17:56:46.344Z,152.60
2022-10-07T17:59:13.763Z,175.90
2022-10-07T18:01:41.203Z,165.30
2022-10-07T18:04:14.499Z,158.60
2022-10-07T18:06:44.832Z,187.30
2022-10-07T18:09:15.708Z,211.50
2022-10-07T18:12:01.457Z,164.70
2022-10-07T18:14:51.109Z,151.30
2022-10-07T18:17:23.809Z,148.80
2022-10-07T18:19:51.399Z,164.80
2022-10-07T18:22:19.246Z,158.50
2022-10-07T18:24:46.352Z,164.80
2022-10-07T18:27:13.255Z,186.60
2022-10-07T18:29:40.560Z,205.10
2022-10-07T18:32:08.457Z,216.90
2022-10-07T18:34:35.901Z,192.80
2022-10-07T18:37:06.454Z,248.80
2022-10-07T18:39:34.693Z,309.90
2022-10-07T18:42:04.371Z,318.90
2022-10-07T18:44:34.300Z,274.60
2022-10-07T18:47:01.756Z,267.20
2022-10-07T18:49:29.386Z,248.80
2022-10-07T18:52:00.478Z,250.50
2022-10-07T18:54:30.170Z,238.70
2022-10-07T18:56:57.259Z,233.70
2022-10-07T18:59:24.691Z,223.80
2022-10-07T19:01:51.847Z,235.10
2022-10-07T19:04:22.644Z,248.30
2022-10-07T19:06:53.460Z,242.50
2022-10-07T19:09:22.288Z,263.00
2022-10-07T19:11:50.946Z,204.00
2022-10-07T19:14:19.989Z,228.20
2022-10-07T19:16:48.522Z,240.00
2022-10-07T19:19:22.110Z,212.50
2022-10-07T19:21:54.694Z,211.40
2022-10-07T19:24:42.262Z,194.00
2022-10-07T19:27:09.265Z,191.40
2022-10-07T19:29:37.592Z,202.30
2022-10-07T19:32:08.653Z,180.10
2022-10-07T19:34:36.933Z,239.90
2022-10-07T19:37:05.310Z,229.20
2022-10-07T19:39:33.982Z,245.10
2022-10-07T19:42:02.256Z,222.30
2022-10-07T19:44:33.073Z,236.80
2022-10-07T19:47:03.823Z,200.40
2022-10-07T19:49:56.143Z,163.70
2022-10-07T19:52:21.906Z,141.40
2022-10-07T19:54:50.720Z,126.90
2022-10-07T19:57:21.132Z,144.20
2022-10-07T19:59:48.853Z,155.90
2022-10-07T20:02:16.592Z,103.30
2022-10-07T20:04:44.703Z,106.80
2022-10-07T20:07:12.323Z,123.20
2022-10-07T20:09:39.044Z,110.60
2022-10-07T20:12:05.561Z,126.30
2022-10-07T20:14:33.258Z,133.40
2022-10-07T20:17:00.410Z,126.80
2022-10-07T20:19:27.212Z,150.00
2022-10-07T20:21:55.015Z,110.60
2022-10-07T20:24:21.583Z,106.60
2022-10-07T20:26:48.543Z,112.70
2022-10-07T20:29:16.211Z,112.30
2022-10-07T20:31:44.602Z,106.70
2022-10-07T20:34:15.321Z,110.00
2022-10-07T20:36:43.372Z,97.30
2022-10-07T20:39:39.029Z,118.70
2022-10-07T20:42:21.084Z,121.40
2022-10-07T20:44:49.458Z,181.90
2022-10-07T20:47:18.584Z,201.60
2022-10-07T20:49:47.772Z,208.10
2022-10-07T20:52:21.335Z,215.00
2022-10-07T20:54:49.561Z,231.50
2022-10-07T20:57:23.579Z,217.20
2022-10-07T20:59:51.175Z,207.20
2022-10-07T21:02:20.605Z,222.60
2022-10-07T21:04:48.022Z,212.90
2022-10-07T21:07:16.371Z,207.10
2022-10-07T21:09:43.822Z,201.70
2022-10-07T21:12:13.858Z,240.90
2022-10-07T21:14:42.655Z,229.50
2022-10-07T21:17:10.593Z,234.90
2022-10-07T21:19:37.813Z,243.00
2022-10-07T21:22:05.320Z,246.40
2022-10-07T21:24:33.795Z,230.40
2022-10-07T21:27:06.248Z,206.70
2022-10-07T21:29:37.522Z,197.00
2022-10-07T21:32:08.778Z,206.50
2022-10-07T21:34:35.685Z,165.90
2022-10-07T21:37:04.654Z,171.10
2022-10-07T21:39:31.690Z,191.00
2022-10-07T21:41:58.472Z,197.60
2022-10-07T21:44:26.300Z,205.50
2022-10-07T21:46:53.078Z,208.40
2022-10-07T21:49:22.790Z,240.20
2022-10-07T21:51:49.349Z,224.70
2022-10-07T21:54:16.598Z,201.10
2022-10-07T21:56:45.529Z,196.30
2022-10-07T21:59:13.757Z,170.20
2022-10-07T22:01:41.234Z,126.50
2022-10-07T22:04:16.063Z,117.50
2022-10-07T22:07:01.784Z,122.60
2022-10-07T22:09:28.807Z,127.80
2022-10-07T22:11:56.673Z,126.60
2022-10-07T22:14:23.382Z,121.70
2022-10-07T22:16:50.071Z,132.50
2022-10-07T22:19:19.522Z,139.70
2022-10-07T22:21:46.442Z,135.20
2022-10-07T22:24:13.434Z,127.80
2022-10-07T22:26:45.269Z,119.20
2022-10-07T22:29:14.546Z,102.20
2022-10-07T22:31:41.306Z,87.80
2022-10-07T22:34:08.338Z,67.90
2022-10-07T22:36:36.213Z,88.20
2022-10-07T22:39:03.282Z,78.50
2022-10-07T22:41:30.532Z,81.40
2022-10-07T22:43:58.463Z,81.40
2022-10-07T22:46:28.114Z,73.30
2022-10-07T22:48:57.607Z,65.40
2022-10-07T22:51:27.696Z,63.40
2022-10-07T22:53:56.376Z,64.50
2022-10-07T22:56:26.922Z,72.70
2022-10-07T22:58:59.941Z,62.30
2022-10-07T23:01:31.410Z,64.30
2022-10-07T23:04:00.220Z,74.10
2022-10-07T23:06:27.516Z,69.70
2022-10-07T23:08:54.768Z,88.00
2022-10-07T23:11:23.960Z,64.10
2022-10-07T23:13:51.534Z,75.80
2022-10-07T23:16:21.928Z,76.60
2022-10-07T23:18:52.044Z,76.10
2022-10-07T23:21:24.831Z,75.60
2022-10-07T23:24:04.398Z,70.30
2022-10-07T23:26:34.374Z,64.70
2022-10-07T23:29:01.222Z,67.20
2022-10-07T23:31:30.850Z,64.50
2022-10-07T23:33:58.475Z,63.60
2022-10-07T23:36:25.953Z,60.70
2022-10-07T23:38:53.161Z,68.00
2022-10-07T23:41:24.348Z,67.50
2022-10-07T23:43:56.914Z,65.20
2022-10-07T23:46:25.623Z,66.00
2022-10-07T23:48:52.597Z,88.70
2022-10-07T23:51:22.606Z,74.00
2022-10-07T23:53:49.571Z,76.40
2022-10-07T23:56:17.988Z,80.00
2022-10-07T23:58:44.788Z,67.00
